createdAt,value
2022-09-22T00:01:27.444Z,95609.31
2022-09-22T00:03:58.966Z,95604.88
2022-09-22T00:06:28.756Z,95602.28
2022-09-22T00:09:02.111Z,95604.09
2022-09-22T00:11:36.270Z,95604.88
2022-09-22T00:14:26.611Z,95611.16
2022-09-22T00:16:57.860Z,95609.16
2022-09-22T00:19:29.013Z,95612.94
2022-09-22T00:21:56.773Z,95612.25
2022-09-22T00:24:26.049Z,95604.75
2022-09-22T00:26:59.058Z,95611.44
2022-09-22T00:29:28.275Z,95600.31
2022-09-22T00:31:56.143Z,95606.84
2022-09-22T00:34:26.247Z,95614.72
2022-09-22T00:36:53.941Z,95604.75
2022-09-22T00:39:21.780Z,95594.25
2022-09-22T00:41:52.892Z,95597.34
2022-09-22T00:44:44.891Z,95592.44
2022-09-22T00:47:28.963Z,95591.47
2022-09-22T00:50:28.543Z,95588.84
2022-09-22T00:53:04.045Z,95590.81
2022-09-22T00:55:57.706Z,95580.03
2022-09-22T00:58:37.692Z,95579.56
2022-09-22T01:01:05.110Z,95577.75
2022-09-22T01:03:32.188Z,95582.16
2022-09-22T01:06:06.299Z,95577.75
2022-09-22T01:08:34.316Z,95576.75
2022-09-22T01:11:01.980Z,95575.16
2022-09-22T01:13:33.523Z,95570.88
2022-09-22T01:16:18.444Z,95565.47
2022-09-22T01:19:35.207Z,95561.72
2022-09-22T01:22:13.852Z,95557.47
2022-09-22T01:25:30.279Z,95563.22
2022-09-22T01:28:30.494Z,95558.69
2022-09-22T01:31:48.407Z,95571.28
2022-09-22T01:34:36.241Z,95574.91
2022-09-22T01:37:19.106Z,95574.91
2022-09-22T01:39:54.238Z,95573.75
2022-09-22T01:42:49.689Z,95571.28
2022-09-22T01:45:21.716Z,95571.78
2022-09-22T01:47:58.905Z,95574.88
2022-09-22T01:50:34.549Z,95572.06
2022-09-22T01:53:08.687Z,95571.91
2022-09-22T01:55:43.029Z,95575.78
2022-09-22T01:58:22.125Z,95578.09
2022-09-22T02:01:01.043Z,95569.91
2022-09-22T02:03:43.484Z,95572.34
2022-09-22T02:06:24.908Z,95556.25
2022-09-22T02:09:00.024Z,95544.00
2022-09-22T02:11:27.268Z,95549.06
2022-09-22T02:13:54.711Z,95546.09
2022-09-22T02:16:24.299Z,95549.22
2022-09-22T02:19:13.109Z,95552.00
2022-09-22T02:21:44.670Z,95549.75
2022-09-22T02:24:38.411Z,95539.78
2022-09-22T02:27:35.544Z,95530.63
2022-09-22T02:30:08.261Z,95539.97
2022-09-22T02:32:39.654Z,95544.09
2022-09-22T02:35:08.683Z,95533.97
2022-09-22T02:37:54.848Z,95524.97
2022-09-22T02:40:24.910Z,95536.50
2022-09-22T02:43:06.731Z,95538.97
2022-09-22T02:46:04.242Z,95536.53
2022-09-22T02:48:43.047Z,95533.63
2022-09-22T02:51:10.508Z,95532.97
2022-09-22T02:53:37.689Z,95531.16
2022-09-22T02:56:05.436Z,95527.09
2022-09-22T02:58:32.430Z,95530.50
2022-09-22T03:00:59.682Z,95514.50
2022-09-22T03:03:27.492Z,95514.16
2022-09-22T03:05:54.669Z,95508.78
2022-09-22T03:08:21.713Z,95516.28
2022-09-22T03:10:48.692Z,95514.00
2022-09-22T03:13:17.189Z,95511.03
2022-09-22T03:15:46.560Z,95510.22
2022-09-22T03:18:14.427Z,95512.38
2022-09-22T03:20:41.760Z,95513.34
2022-09-22T03:23:08.828Z,95507.34
2022-09-22T03:25:36.212Z,95526.94
2022-09-22T03:28:03.463Z,95522.19
2022-09-22T03:30:30.897Z,95527.94
2022-09-22T03:32:57.930Z,95533.84
2022-09-22T03:35:24.887Z,95530.59
2022-09-22T03:37:52.305Z,95530.25
2022-09-22T03:40:19.330Z,95531.41
2022-09-22T03:42:46.364Z,95528.78
2022-09-22T03:45:15.120Z,95535.00
2022-09-22T03:47:42.395Z,95526.03
2022-09-22T03:50:10.427Z,95540.22
2022-09-22T03:52:37.615Z,95532.38
2022-09-22T03:55:05.127Z,95530.09
2022-09-22T03:57:32.052Z,95526.97
2022-09-22T03:59:59.048Z,95516.84
2022-09-22T04:02:26.114Z,95512.41
2022-09-22T04:04:53.489Z,95525.31
2022-09-22T04:07:20.823Z,95523.53
2022-09-22T04:09:47.849Z,95504.41
2022-09-22T04:12:14.955Z,95518.28
2022-09-22T04:14:41.967Z,95502.09
2022-09-22T04:17:09.057Z,95514.69
2022-09-22T04:19:36.904Z,95521.41
2022-09-22T04:22:04.489Z,95525.97
2022-09-22T04:24:31.654Z,95510.75
2022-09-22T04:29:45.943Z,95524.50
2022-09-22T04:32:14.098Z,95528.94
2022-09-22T04:34:41.112Z,95527.97
2022-09-22T04:37:08.154Z,95524.50
2022-09-22T04:39:36.311Z,95522.38
2022-09-22T04:42:04.296Z,95536.94
2022-09-22T04:44:34.790Z,95534.16
2022-09-22T04:47:02.357Z,95537.41
2022-09-22T04:49:29.639Z,95530.72
2022-09-22T04:51:56.776Z,95531.84
2022-09-22T04:54:27.149Z,95525.59
2022-09-22T04:56:55.354Z,95522.97
2022-09-22T04:59:24.272Z,95525.75
2022-09-22T05:01:52.105Z,95522.84
2022-09-22T05:04:19.463Z,95525.09
2022-09-22T05:06:46.958Z,95530.84
2022-09-22T05:09:14.410Z,95533.47
2022-09-22T05:11:41.428Z,95528.41
2022-09-22T05:14:08.525Z,95532.34
2022-09-22T05:16:35.738Z,95532.00
2022-09-22T05:19:04.358Z,95535.59
2022-09-22T05:21:31.924Z,95538.88
2022-09-22T05:23:59.054Z,95530.03
2022-09-22T05:26:26.245Z,95539.66
2022-09-22T05:28:53.596Z,95529.34
2022-09-22T05:31:20.775Z,95535.22
2022-09-22T05:33:47.812Z,95546.63
2022-09-22T05:36:15.228Z,95543.38
2022-09-22T05:38:42.655Z,95549.06
2022-09-22T05:41:09.841Z,95537.13
2022-09-22T05:43:37.151Z,95549.22
2022-09-22T05:46:04.635Z,95544.28
2022-09-22T05:48:31.735Z,95537.25
2022-09-22T05:50:59.209Z,95538.03
2022-09-22T05:53:26.170Z,95548.97
2022-09-22T05:55:54.505Z,95539.78
2022-09-22T05:58:21.721Z,95552.53
2022-09-22T06:00:48.843Z,95536.34
2022-09-22T06:03:15.869Z,95534.34
2022-09-22T06:05:45.114Z,95538.09
2022-09-22T06:08:12.511Z,95534.50
2022-09-22T06:10:40.122Z,95541.69
2022-09-22T06:13:10.273Z,95534.13
2022-09-22T06:15:38.382Z,95543.00
2022-09-22T06:18:13.223Z,95539.38
2022-09-22T06:20:43.041Z,95542.34
2022-09-22T06:23:12.719Z,95543.81
2022-09-22T06:25:39.765Z,95549.22
2022-09-22T06:28:10.664Z,95552.19
2022-09-22T06:30:40.266Z,95554.63
2022-09-22T06:33:11.710Z,95549.38
2022-09-22T06:35:43.021Z,95548.59
2022-09-22T06:38:16.567Z,95540.91
2022-09-22T06:40:44.464Z,95554.47
2022-09-22T06:43:23.690Z,95559.03
2022-09-22T06:45:53.083Z,95564.38
2022-09-22T06:48:23.665Z,95562.56
2022-09-22T06:50:54.583Z,95555.44
2022-09-22T06:53:25.478Z,95563.25
2022-09-22T06:55:54.410Z,95556.88
2022-09-22T06:58:22.620Z,95565.63
2022-09-22T07:00:50.605Z,95572.06
2022-09-22T07:03:22.405Z,95562.50
2022-09-22T07:05:58.393Z,95567.81
2022-09-22T07:08:26.043Z,95555.31
2022-09-22T07:10:58.929Z,95563.13
2022-09-22T07:13:30.101Z,95561.97
2022-09-22T07:16:04.584Z,95561.78
2022-09-22T07:18:31.883Z,95553.88
2022-09-22T07:21:09.702Z,95549.03
2022-09-22T07:23:36.952Z,95550.19
2022-09-22T07:26:12.008Z,95547.28
2022-09-22T07:28:39.894Z,95553.88
2022-09-22T07:31:13.306Z,95552.13
2022-09-22T07:33:43.723Z,95553.84
2022-09-22T07:36:14.328Z,95556.94
2022-09-22T07:38:45.453Z,95549.41
2022-09-22T07:41:16.367Z,95560.66
2022-09-22T07:43:43.347Z,95554.06
2022-09-22T07:46:10.408Z,95564.66
2022-09-22T07:48:42.092Z,95564.41
2022-09-22T07:51:21.753Z,95565.63
2022-09-22T07:54:08.734Z,95564.72
2022-09-22T07:56:41.232Z,95551.84
2022-09-22T07:59:11.080Z,95556.84
2022-09-22T08:01:44.974Z,95567.44
2022-09-22T08:04:15.694Z,95553.22
2022-09-22T08:06:48.674Z,95564.56
2022-09-22T08:09:16.148Z,95577.41
2022-09-22T08:11:48.537Z,95571.25
2022-09-22T08:14:17.358Z,95582.31
2022-09-22T08:16:46.162Z,95575.38
2022-09-22T08:19:14.615Z,95580.28
2022-09-22T08:21:49.718Z,95587.94
2022-09-22T08:24:22.931Z,95584.09
2022-09-22T08:26:52.408Z,95584.47
2022-09-22T08:29:20.327Z,95580.56
2022-09-22T08:31:48.321Z,95577.88
2022-09-22T08:34:18.445Z,95569.47
2022-09-22T08:36:48.525Z,95578.25
2022-09-22T08:39:18.235Z,95560.44
2022-09-22T08:41:54.136Z,95577.81
2022-09-22T08:44:26.187Z,95574.63
2022-09-22T08:46:55.008Z,95573.47
2022-09-22T08:50:17.009Z,95557.69
2022-09-22T08:52:54.096Z,95564.44
2022-09-22T08:55:26.703Z,95555.34
2022-09-22T08:58:06.729Z,95560.03
2022-09-22T09:00:47.190Z,95551.50
2022-09-22T09:03:36.340Z,95555.16
2022-09-22T09:06:44.297Z,95550.94
2022-09-22T09:09:32.661Z,95557.03
2022-09-22T09:12:19.760Z,95556.84
2022-09-22T09:15:02.290Z,95556.47
2022-09-22T09:17:34.079Z,95552.66
2022-09-22T09:20:35.209Z,95554.72
2022-09-22T09:23:10.581Z,95559.63
2022-09-22T09:25:41.989Z,95551.13
2022-09-22T09:28:32.384Z,95547.91
2022-09-22T09:31:09.689Z,95552.97
2022-09-22T09:33:58.712Z,95557.81
2022-09-22T09:36:33.130Z,95552.91
2022-09-22T09:39:13.524Z,95557.53
2022-09-22T09:41:41.789Z,95551.63
2022-09-22T09:44:20.666Z,95549.94
2022-09-22T09:47:32.437Z,95555.78
2022-09-22T09:49:59.824Z,95548.00
2022-09-22T09:52:28.537Z,95554.84
2022-09-22T09:54:55.741Z,95546.66
2022-09-22T09:57:27.470Z,95542.00
2022-09-22T10:00:32.173Z,95546.53
2022-09-22T10:03:29.128Z,95548.41
2022-09-22T10:06:09.513Z,95545.66
2022-09-22T10:08:46.389Z,95540.59
2022-09-22T10:11:15.082Z,95536.31
2022-09-22T10:13:44.716Z,95546.06
2022-09-22T10:16:31.016Z,95550.94
2022-09-22T10:19:21.868Z,95544.81
2022-09-22T10:21:49.898Z,95540.69
2022-09-22T10:24:32.695Z,95543.06
2022-09-22T10:27:02.531Z,95529.97
2022-09-22T10:29:32.830Z,95533.59
2022-09-22T10:32:16.861Z,95537.16
2022-09-22T10:34:51.300Z,95531.75
2022-09-22T10:37:26.081Z,95528.25
2022-09-22T10:39:58.742Z,95528.84
2022-09-22T10:42:41.315Z,95523.16
2022-09-22T10:45:19.437Z,95526.38
2022-09-22T10:48:51.836Z,95520.06
2022-09-22T10:52:03.287Z,95515.97
2022-09-22T10:55:14.154Z,95514.06
2022-09-22T10:58:04.486Z,95515.84
2022-09-22T11:00:41.039Z,95514.13
2022-09-22T11:03:41.898Z,95509.03
2022-09-22T11:07:12.003Z,95504.19
2022-09-22T11:10:40.120Z,95501.31
2022-09-22T11:13:24.137Z,95497.56
2022-09-22T11:16:34.581Z,95494.38
2022-09-22T11:19:24.969Z,95498.44
2022-09-22T11:22:26.551Z,95497.69
2022-09-22T11:25:43.842Z,95502.13
2022-09-22T11:28:43.656Z,95496.91
2022-09-22T11:31:48.957Z,95487.69
2022-09-22T11:35:04.879Z,95480.25
2022-09-22T11:38:19.721Z,95487.91
2022-09-22T11:41:31.093Z,95488.22
2022-09-22T11:44:14.409Z,95476.50
2022-09-22T11:47:20.897Z,95482.53
2022-09-22T11:50:20.063Z,95482.19
2022-09-22T11:53:24.584Z,95480.75
2022-09-22T11:56:19.153Z,95486.34
2022-09-22T11:58:47.714Z,95478.03
2022-09-22T12:01:22.373Z,95480.84
2022-09-22T12:04:03.516Z,95478.53
2022-09-22T12:06:38.531Z,95482.44
2022-09-22T12:09:26.064Z,95485.47
2022-09-22T12:11:57.044Z,95472.16
2022-09-22T12:14:25.112Z,95475.06
2022-09-22T12:17:23.538Z,95468.72
2022-09-22T12:20:12.566Z,95471.88
2022-09-22T12:23:29.695Z,95470.22
2022-09-22T12:26:01.931Z,95462.78
2022-09-22T12:28:32.502Z,95461.81
2022-09-22T12:31:07.464Z,95456.34
2022-09-22T12:33:38.171Z,95453.59
2022-09-22T12:36:06.996Z,95443.31
2022-09-22T12:38:34.920Z,95454.00
2022-09-22T12:41:04.620Z,95447.88
2022-09-22T12:43:35.277Z,95453.22
2022-09-22T12:46:12.947Z,95459.13
2022-09-22T12:48:40.216Z,95460.41
2022-09-22T12:51:25.672Z,95450.78
2022-09-22T12:54:22.022Z,95457.03
2022-09-22T12:59:37.415Z,95457.59
2022-09-22T13:02:29.397Z,95449.44
2022-09-22T13:04:56.488Z,95458.97
2022-09-22T13:07:44.088Z,95476.34
2022-09-22T13:10:26.748Z,95481.66
2022-09-22T13:13:03.164Z,95482.53
2022-09-22T13:15:46.762Z,95489.97
2022-09-22T13:18:36.991Z,95494.44
2022-09-22T13:21:23.311Z,95499.41
2022-09-22T13:24:02.595Z,95505.38
2022-09-22T13:26:41.794Z,95496.16
2022-09-22T13:29:17.713Z,95502.34
2022-09-22T13:31:57.832Z,95503.22
2022-09-22T13:34:29.284Z,95504.38
2022-09-22T13:37:10.902Z,95499.63
2022-09-22T13:39:47.151Z,95492.63
2022-09-22T13:42:32.233Z,95477.03
2022-09-22T13:45:21.394Z,95447.03
2022-09-22T13:47:49.250Z,95457.47
2022-09-22T13:50:22.254Z,95455.28
2022-09-22T13:52:53.091Z,95441.09
2022-09-22T13:55:33.164Z,95439.91
2022-09-22T13:58:02.270Z,95445.81
2022-09-22T14:00:49.879Z,95440.94
2022-09-22T14:03:22.872Z,95442.19
2022-09-22T14:05:54.041Z,95436.72
2022-09-22T14:08:30.126Z,95436.97
2022-09-22T14:11:02.497Z,95445.72
2022-09-22T14:13:59.045Z,95437.63
2022-09-22T14:17:10.229Z,95437.44
2022-09-22T14:19:46.393Z,95446.19
2022-09-22T14:22:28.796Z,95442.53
2022-09-22T14:24:59.546Z,95446.13
2022-09-22T14:27:46.475Z,95429.91
2022-09-22T14:30:20.190Z,95426.63
2022-09-22T14:33:00.444Z,95430.22
2022-09-22T14:35:31.417Z,95437.34
2022-09-22T14:38:09.341Z,95440.09
2022-09-22T14:40:52.646Z,95434.38
2022-09-22T14:43:37.358Z,95431.28
2022-09-22T14:46:33.945Z,95423.91
2022-09-22T14:49:42.379Z,95426.09
2022-09-22T14:52:27.159Z,95423.16
2022-09-22T14:54:58.013Z,95427.13
2022-09-22T14:57:26.674Z,95433.66
2022-09-22T15:00:17.013Z,95422.06
2022-09-22T15:02:50.074Z,95420.59
2022-09-22T15:05:30.285Z,95419.41
2022-09-22T15:07:59.766Z,95415.38
2022-09-22T15:10:30.681Z,95413.56
2022-09-22T15:13:46.507Z,95414.84
2022-09-22T15:16:38.631Z,95420.81
2022-09-22T15:19:11.531Z,95416.22
2022-09-22T15:21:41.207Z,95411.81
2022-09-22T15:24:11.013Z,95409.59
2022-09-22T15:26:38.629Z,95406.75
2022-09-22T15:29:06.007Z,95398.47
2022-09-22T15:31:33.160Z,95403.78
2022-09-22T15:34:02.804Z,95400.16
2022-09-22T15:36:32.889Z,95400.00
2022-09-22T15:39:34.406Z,95392.28
2022-09-22T15:42:02.527Z,95388.78
2022-09-22T15:44:32.626Z,95395.22
2022-09-22T15:47:01.093Z,95385.84
2022-09-22T15:49:29.552Z,95390.69
2022-09-22T15:51:57.404Z,95394.34
2022-09-22T15:54:26.355Z,95393.34
2022-09-22T15:56:55.209Z,95391.09
2022-09-22T15:59:27.365Z,95398.88
2022-09-22T16:01:56.947Z,95401.69
2022-09-22T16:04:24.807Z,95404.06
2022-09-22T16:07:08.559Z,95405.78
2022-09-22T16:09:36.585Z,95411.31
2022-09-22T16:12:07.514Z,95413.31
2022-09-22T16:14:36.746Z,95423.97
2022-09-22T16:17:04.124Z,95420.22
2022-09-22T16:19:32.068Z,95416.75
2022-09-22T16:21:59.322Z,95413.44
2022-09-22T16:24:28.490Z,95422.56
2022-09-22T16:26:56.157Z,95419.28
2022-09-22T16:29:25.037Z,95428.97
2022-09-22T16:31:52.131Z,95432.44
2022-09-22T16:34:19.050Z,95428.13
2022-09-22T16:36:46.392Z,95429.47
2022-09-22T16:39:13.326Z,95419.44
2022-09-22T16:41:45.713Z,95438.56
2022-09-22T16:44:13.303Z,95433.31
2022-09-22T16:46:40.372Z,95433.72
2022-09-22T16:49:11.603Z,95427.81
2022-09-22T16:51:50.447Z,95435.72
2022-09-22T16:54:18.992Z,95437.50
2022-09-22T16:56:50.754Z,95436.25
2022-09-22T16:59:20.453Z,95438.63
2022-09-22T17:01:47.768Z,95441.84
2022-09-22T17:04:19.047Z,95443.84
2022-09-22T17:06:47.273Z,95450.44
2022-09-22T17:09:15.252Z,95442.25
2022-09-22T17:11:45.359Z,95446.09
2022-09-22T17:14:15.397Z,95449.50
2022-09-22T17:16:50.217Z,95445.03
2022-09-22T17:19:20.676Z,95441.97
2022-09-22T17:21:52.026Z,95446.81
2022-09-22T17:24:19.796Z,95445.38
2022-09-22T17:26:54.696Z,95439.47
2022-09-22T17:29:25.551Z,95444.75
2022-09-22T17:32:11.153Z,95445.31
2022-09-22T17:34:38.518Z,95438.41
2022-09-22T17:37:06.036Z,95440.63
2022-09-22T17:39:33.389Z,95446.09
2022-09-22T17:42:00.537Z,95437.75
2022-09-22T17:44:29.329Z,95444.84
2022-09-22T17:47:15.129Z,95434.91
2022-09-22T17:50:00.554Z,95437.91
2022-09-22T17:52:39.905Z,95442.94
2022-09-22T17:55:21.166Z,95445.88
2022-09-22T17:57:48.300Z,95443.38
2022-09-22T18:00:21.991Z,95441.91
2022-09-22T18:02:50.974Z,95440.41
2022-09-22T18:05:22.125Z,95452.03
2022-09-22T18:07:53.489Z,95453.81
2022-09-22T18:10:20.948Z,95454.75
2022-09-22T18:12:48.365Z,95449.41
2022-09-22T18:15:17.244Z,95454.03
2022-09-22T18:17:44.531Z,95450.16
2022-09-22T18:20:15.400Z,95455.75
2022-09-22T18:22:47.890Z,95458.59
2022-09-22T18:25:19.161Z,95455.50
2022-09-22T18:27:48.835Z,95457.50
2022-09-22T18:30:19.682Z,95452.78
2022-09-22T18:32:48.010Z,95454.97
2022-09-22T18:35:15.707Z,95460.63
2022-09-22T18:37:43.101Z,95447.38
2022-09-22T18:40:12.318Z,95456.72
2022-09-22T18:42:41.344Z,95455.28
2022-09-22T18:45:10.186Z,95459.09
2022-09-22T18:47:40.813Z,95455.75
2022-09-22T18:50:10.692Z,95466.34
2022-09-22T18:52:39.107Z,95464.88
2022-09-22T18:55:09.393Z,95467.72
2022-09-22T18:57:36.760Z,95467.91
2022-09-22T19:00:04.933Z,95474.94
2022-09-22T19:02:32.077Z,95465.81
2022-09-22T19:04:59.293Z,95468.81
2022-09-22T19:07:42.442Z,95459.59
2022-09-22T19:10:14.044Z,95467.47
2022-09-22T19:12:42.583Z,95473.44
2022-09-22T19:15:13.899Z,95483.06
2022-09-22T19:17:46.938Z,95478.06
2022-09-22T19:20:23.933Z,95488.66
2022-09-22T19:22:52.652Z,95482.47
2022-09-22T19:25:22.388Z,95485.63
2022-09-22T19:27:52.497Z,95469.69
2022-09-22T19:30:23.917Z,95477.94
2022-09-22T19:32:52.964Z,95480.44
2022-09-22T19:35:20.605Z,95479.78
2022-09-22T19:37:48.318Z,95483.97
2022-09-22T19:40:19.129Z,95483.84
2022-09-22T19:42:47.181Z,95477.06
2022-09-22T19:45:14.689Z,95479.34
2022-09-22T19:47:41.957Z,95484.47
2022-09-22T19:50:09.014Z,95484.53
2022-09-22T19:52:37.847Z,95487.06
2022-09-22T19:55:11.458Z,95481.88
2022-09-22T19:57:41.643Z,95472.41
2022-09-22T20:00:25.635Z,95482.41
2022-09-22T20:02:58.617Z,95482.13
2022-09-22T20:05:37.120Z,95476.94
2022-09-22T20:08:07.212Z,95472.22
2022-09-22T20:10:34.961Z,95474.53
2022-09-22T20:13:21.851Z,95472.78
2022-09-22T20:15:48.842Z,95480.97
2022-09-22T20:18:15.735Z,95480.53
2022-09-22T20:20:44.669Z,95478.41
2022-09-22T20:23:12.029Z,95482.50
2022-09-22T20:25:39.043Z,95489.09
2022-09-22T20:28:06.744Z,95488.94
2022-09-22T20:30:35.141Z,95490.09
2022-09-22T20:33:02.033Z,95488.47
2022-09-22T20:35:29.319Z,95488.63
2022-09-22T20:37:59.335Z,95480.31
2022-09-22T20:40:26.839Z,95483.91
2022-09-22T20:42:54.750Z,95484.06
2022-09-22T20:45:25.271Z,95479.16
2022-09-22T20:47:54.169Z,95477.53
2022-09-22T20:50:21.498Z,95484.09
2022-09-22T20:52:50.622Z,95480.81
2022-09-22T20:55:17.737Z,95474.31
2022-09-22T20:57:44.674Z,95484.78
2022-09-22T21:00:15.364Z,95485.94
2022-09-22T21:02:42.642Z,95482.03
2022-09-22T21:05:09.620Z,95479.72
2022-09-22T21:07:36.516Z,95486.13
2022-09-22T21:10:22.221Z,95484.66
2022-09-22T21:12:50.685Z,95484.34
2022-09-22T21:15:19.310Z,95484.50
2022-09-22T21:17:47.942Z,95481.38
2022-09-22T21:20:14.965Z,95476.34
2022-09-22T21:22:42.809Z,95490.06
2022-09-22T21:25:10.876Z,95477.31
2022-09-22T21:27:38.373Z,95475.84
2022-09-22T21:30:08.050Z,95475.38
2022-09-22T21:32:35.799Z,95476.38
2022-09-22T21:35:02.893Z,95467.03
2022-09-22T21:37:31.371Z,95475.88
2022-09-22T21:39:58.335Z,95471.78
2022-09-22T21:42:26.813Z,95467.38
2022-09-22T21:44:53.757Z,95465.09
2022-09-22T21:47:20.771Z,95457.91
2022-09-22T21:49:47.927Z,95460.84
2022-09-22T21:52:15.049Z,95468.03
2022-09-22T21:54:42.009Z,95456.63
2022-09-22T21:57:09.064Z,95461.00
2022-09-22T21:59:36.361Z,95459.06
2022-09-22T22:02:03.256Z,95458.38
2022-09-22T22:04:30.441Z,95451.38
2022-09-22T22:06:57.442Z,95455.59
2022-09-22T22:09:25.957Z,95451.22
2022-09-22T22:11:56.849Z,95445.31
2022-09-22T22:14:30.134Z,95443.06
2022-09-22T22:16:57.171Z,95449.53
2022-09-22T22:19:27.016Z,95449.72
2022-09-22T22:21:54.914Z,95454.28
2022-09-22T22:24:25.237Z,95449.22
2022-09-22T22:26:57.143Z,95455.78
2022-09-22T22:29:26.604Z,95453.31
2022-09-22T22:31:54.023Z,95452.00
2022-09-22T22:34:25.627Z,95449.88
2022-09-22T22:36:53.594Z,95450.38
2022-09-22T22:39:20.710Z,95446.63
2022-09-22T22:41:48.863Z,95439.44
2022-09-22T22:44:17.858Z,95438.59
2022-09-22T22:46:46.011Z,95446.59
2022-09-22T22:49:13.674Z,95439.59
2022-09-22T22:51:43.436Z,95443.84
2022-09-22T22:54:12.331Z,95445.63
2022-09-22T22:56:42.464Z,95446.59
2022-09-22T22:59:11.345Z,95446.47
2022-09-22T23:01:40.817Z,95436.16
2022-09-22T23:04:10.321Z,95438.63
2022-09-22T23:06:43.717Z,95439.09
2022-09-22T23:09:15.406Z,95443.00
2022-09-22T23:11:43.885Z,95435.19
2022-09-22T23:14:12.724Z,95433.06
2022-09-22T23:16:46.390Z,95437.31
2022-09-22T23:19:17.609Z,95432.25
2022-09-22T23:21:45.822Z,95434.53
2022-09-22T23:24:16.155Z,95426.84
2022-09-22T23:26:45.708Z,95429.81
2022-09-22T23:29:13.113Z,95425.88
2022-09-22T23:31:40.169Z,95417.88
2022-09-22T23:34:07.201Z,95417.03
2022-09-22T23:36:34.529Z,95427.50
2022-09-22T23:39:04.333Z,95424.06
2022-09-22T23:41:36.510Z,95413.63
2022-09-22T23:44:06.856Z,95418.84
2022-09-22T23:46:34.632Z,95417.03
2022-09-22T23:49:02.394Z,95423.25
2022-09-22T23:51:30.224Z,95415.59
2022-09-22T23:53:58.511Z,95418.66
2022-09-22T23:56:25.997Z,95411.34
2022-09-22T23:58:52.901Z,95413.59
